Time;durP1;ratioP1;P1;durP2;ratioP2;P2;SDS_P1;SDS_P2;PMS_P1;PMS_P2;Temp;Humidity;BMP_temperature;BMP_pressure;BME280_temperature;BME280_humidity;BME280_pressure;Samples;Min_cycle;Max_cycle;Signal;HPM_P1;HPM_P2
2023/12/30 00:01:15;;;;;;;139.68;71.60;;;;;;;10.17;77.67;101673.69;4922228;28;20050;-80
2023/12/30 00:03:42;;;;;;;134.82;70.03;;;;;;;10.18;77.54;101672.72;4883840;29;20143;-80
2023/12/30 00:06:09;;;;;;;137.68;71.25;;;;;;;10.33;77.38;101700.03;4904187;29;20138;-80
2023/12/30 00:08:36;;;;;;;136.40;69.80;;;;;;;9.88;77.30;101620.03;4909875;29;20063;-80
2023/12/30 00:11:06;;;;;;;143.18;70.70;;;;;;;9.94;77.30;101619.56;4932196;28;20596;-81
2023/12/30 00:13:39;;;;;;;139.37;70.80;;;;;;;10.38;77.04;101684.63;4934522;28;20801;-80
2023/12/30 00:16:08;;;;;;;138.70;66.95;;;;;;;10.20;76.83;101656.72;4908031;28;20050;-79
2023/12/30 00:18:38;;;;;;;138.85;71.72;;;;;;;10.21;77.16;101671.66;4909671;28;20439;-81
2023/12/30 00:21:05;;;;;;;144.75;73.03;;;;;;;9.97;76.83;101629.13;4914311;28;20051;-80
2023/12/30 00:23:33;;;;;;;146.05;71.00;;;;;;;10.13;76.95;101652.78;4923614;28;20081;-77
2023/12/30 00:26:23;;;;;;;137.07;67.82;;;;;;;10.33;76.94;101694.72;4924610;28;20384;-80
2023/12/30 00:28:51;;;;;;;138.45;72.30;;;;;;;10.31;76.82;101698.44;4903969;28;20058;-80
2023/12/30 00:31:32;;;;;;;141.77;75.22;;;;;;;10.30;76.71;101700.25;4908146;28;20082;-80
2023/12/30 00:34:01;;;;;;;143.27;74.72;;;;;;;9.44;77.33;101556.81;4941208;28;20734;-81
2023/12/30 00:36:28;;;;;;;156.32;80.13;;;;;;;9.90;77.25;101639.31;4905379;29;20055;-81
2023/12/30 00:38:57;;;;;;;136.98;72.40;;;;;;;10.22;77.14;101697.25;4872629;29;20054;-81
2023/12/30 00:41:25;;;;;;;140.80;72.30;;;;;;;10.19;76.92;101692.16;4910832;28;20051;-80
2023/12/30 00:43:52;;;;;;;145.35;72.68;;;;;;;10.04;77.08;101664.88;4898016;28;20054;-82
2023/12/30 00:46:21;;;;;;;138.65;72.25;;;;;;;10.21;77.41;101692.88;4899814;28;20410;-81
2023/12/30 00:48:52;;;;;;;142.30;71.28;;;;;;;10.20;77.90;101699.16;4916245;28;20311;-81
2023/12/30 00:51:24;;;;;;;138.50;72.60;;;;;;;10.20;77.47;101709.78;4904692;28;20641;-81
2023/12/30 00:53:50;;;;;;;140.45;73.28;;;;;;;10.17;77.16;101691.41;4903358;29;20510;-82
2023/12/30 00:56:18;;;;;;;146.68;74.10;;;;;;;9.56;76.99;101591.28;4894238;29;20056;-80
2023/12/30 00:58:45;;;;;;;136.55;73.95;;;;;;;10.26;77.30;101704.03;4880284;29;20054;-82
2023/12/30 01:01:12;;;;;;;153.00;74.57;;;;;;;10.13;77.31;101688.13;4895540;29;20051;-79
2023/12/30 01:03:40;;;;;;;156.90;74.00;;;;;;;10.18;77.12;101701.91;4928961;28;20058;-80
2023/12/30 01:06:08;;;;;;;143.07;71.78;;;;;;;10.09;77.72;101677.81;4891179;28;20434;-79
2023/12/30 01:08:35;;;;;;;148.40;70.80;;;;;;;10.18;77.35;101696.59;4903104;28;20053;-80
2023/12/30 01:11:07;;;;;;;139.65;72.63;;;;;;;10.07;77.70;101683.22;4953727;28;20150;-81
2023/12/30 01:13:34;;;;;;;143.57;72.43;;;;;;;10.24;76.97;101690.00;4907472;28;20053;-79
2023/12/30 01:16:05;;;;;;;135.40;69.43;;;;;;;10.09;77.03;101685.78;4884881;28;20055;-83
2023/12/30 01:18:32;;;;;;;146.40;69.15;;;;;;;10.25;76.71;101697.03;4918245;28;20285;-75
2023/12/30 01:20:59;;;;;;;142.65;70.13;;;;;;;10.25;76.65;101702.34;4927728;28;20106;-78
2023/12/30 01:23:27;;;;;;;141.82;72.25;;;;;;;10.18;76.37;101690.47;4908408;28;20167;-82
2023/12/30 01:25:54;;;;;;;138.48;69.78;;;;;;;10.04;76.86;101673.69;4922640;28;20129;-80
2023/12/30 01:28:21;;;;;;;144.15;71.95;;;;;;;10.17;76.49;101715.28;4908801;28;20494;-81
2023/12/30 01:30:48;;;;;;;138.63;73.68;;;;;;;9.78;76.56;101624.25;4925386;28;20482;-81
2023/12/30 01:33:17;;;;;;;148.02;75.28;;;;;;;10.15;76.69;101704.78;4908940;28;20047;-83
2023/12/30 01:35:45;;;;;;;152.70;74.03;;;;;;;10.14;76.45;101703.06;4928040;28;20063;-81
2023/12/30 01:38:12;;;;;;;147.88;76.70;;;;;;;9.95;76.91;101658.44;4918087;28;20563;-79
2023/12/30 01:40:41;;;;;;;151.35;74.68;;;;;;;10.11;77.36;101690.03;4940672;28;20086;-79
2023/12/30 01:43:24;;;;;;;144.05;71.47;;;;;;;9.70;76.62;101618.63;4951737;28;20594;-80
2023/12/30 01:45:53;;;;;;;149.15;77.78;;;;;;;9.92;76.59;101644.50;4922460;28;20536;-81
2023/12/30 01:48:23;;;;;;;153.02;74.05;;;;;;;10.09;77.27;101680.47;4904358;28;20055;-79
2023/12/30 01:50:51;;;;;;;146.48;72.85;;;;;;;10.12;76.90;101690.88;4921692;28;20464;-80
2023/12/30 01:53:21;;;;;;;150.30;74.82;;;;;;;10.14;77.38;101684.50;4939364;28;20050;-76
2023/12/30 01:55:50;;;;;;;140.82;72.18;;;;;;;10.19;76.86;101686.84;4937496;28;20059;-79
2023/12/30 01:58:21;;;;;;;146.98;75.45;;;;;;;10.16;77.30;101692.38;4889759;28;20050;-80
2023/12/30 02:00:49;;;;;;;143.85;75.30;;;;;;;10.20;76.79;101699.16;4913264;28;20046;-80
2023/12/30 02:03:41;;;;;;;141.40;72.57;;;;;;;10.15;77.31;101690.69;4946293;28;20565;-78
2023/12/30 02:06:08;;;;;;;149.57;74.78;;;;;;;10.10;77.22;101682.16;4922428;28;20131;-79
2023/12/30 02:08:35;;;;;;;146.73;74.50;;;;;;;10.06;77.39;101677.09;4915846;28;20047;-82
2023/12/30 02:11:03;;;;;;;128.82;70.32;;;;;;;10.12;77.66;101686.44;4920864;28;20050;-79
2023/12/30 02:13:30;;;;;;;153.15;76.35;;;;;;;9.86;77.51;101651.09;4948102;28;20577;-80
2023/12/30 02:15:57;;;;;;;136.75;72.82;;;;;;;10.05;77.87;101663.94;4932788;28;20150;-80
2023/12/30 02:18:23;;;;;;;148.60;75.15;;;;;;;9.81;77.70;101624.06;4928593;28;20344;-81
2023/12/30 02:20:50;;;;;;;144.80;73.00;;;;;;;9.94;77.62;101656.72;4948407;28;20134;-81
2023/12/30 02:23:19;;;;;;;147.57;74.05;;;;;;;9.93;77.21;101641.75;4929914;28;20085;-81
2023/12/30 02:25:46;;;;;;;138.80;74.82;;;;;;;10.12;77.20;101645.75;4944447;28;20557;-79
2023/12/30 02:28:12;;;;;;;145.95;71.28;;;;;;;10.00;76.74;101652.78;4947910;28;20314;-80
2023/12/30 02:30:39;;;;;;;142.13;73.22;;;;;;;10.20;75.96;101675.28;4927081;28;20054;-79
2023/12/30 02:33:06;;;;;;;132.15;72.50;;;;;;;10.19;76.86;101663.78;4922052;28;20073;-80
2023/12/30 02:35:34;;;;;;;136.18;71.53;;;;;;;10.18;76.43;101663.91;4921995;28;20145;-80
2023/12/30 02:38:01;;;;;;;139.32;68.82;;;;;;;10.04;76.36;101641.84;4924473;28;20051;-79
2023/12/30 02:40:31;;;;;;;139.90;73.50;;;;;;;10.10;75.89;101645.03;4917094;28;20110;-80
2023/12/30 02:42:59;;;;;;;138.35;71.30;;;;;;;10.20;76.29;101669.97;4905968;29;20089;-79
2023/12/30 02:45:29;;;;;;;136.18;69.32;;;;;;;9.98;76.35;101631.69;4916686;29;20055;-81
2023/12/30 02:47:56;;;;;;;139.73;72.90;;;;;;;10.22;76.34;101665.41;4908148;29;20398;-80
2023/12/30 02:50:23;;;;;;;141.30;72.90;;;;;;;10.22;75.98;101654.81;4920853;29;20292;-78
2023/12/30 02:52:53;;;;;;;127.72;68.07;;;;;;;9.99;76.15;101611.31;4903396;28;20050;-79
2023/12/30 02:55:21;;;;;;;138.82;73.95;;;;;;;9.44;75.82;101525.84;4935610;28;20054;-80
2023/12/30 02:57:48;;;;;;;136.82;70.97;;;;;;;10.15;75.63;101633.16;4932992;28;20054;-79
2023/12/30 03:00:17;;;;;;;138.32;71.05;;;;;;;9.87;75.63;101581.19;4945806;28;20140;-79
2023/12/30 03:02:47;;;;;;;135.00;72.05;;;;;;;10.11;76.10;101620.19;4937512;28;20120;-79
2023/12/30 03:05:17;;;;;;;134.32;70.65;;;;;;;10.23;76.34;101637.91;4944292;28;20364;-80
2023/12/30 03:07:50;;;;;;;140.00;73.25;;;;;;;10.25;75.93;101643.97;4948224;28;20077;-80
2023/12/30 03:10:17;;;;;;;131.38;69.40;;;;;;;9.98;75.88;101593.69;4941872;28;20050;-80
2023/12/30 03:12:43;;;;;;;136.02;70.78;;;;;;;9.67;75.94;101534.00;4914611;28;20054;-78
2023/12/30 03:15:10;;;;;;;146.00;72.50;;;;;;;10.21;76.21;101639.81;4917763;28;20051;-78
2023/12/30 03:17:37;;;;;;;129.27;70.50;;;;;;;10.00;75.81;101603.25;4919453;28;20062;-78
2023/12/30 03:20:09;;;;;;;138.30;71.25;;;;;;;10.25;76.29;101638.66;4912516;28;20385;-80
2023/12/30 03:22:37;;;;;;;130.52;70.75;;;;;;;10.20;75.96;101624.88;4915191;28;20076;-79
2023/12/30 03:25:04;;;;;;;133.57;71.30;;;;;;;10.17;75.18;101623.28;4937566;28;20131;-79
2023/12/30 03:27:31;;;;;;;138.20;71.00;;;;;;;9.84;75.96;101561.03;4918903;28;20340;-81
2023/12/30 03:29:59;;;;;;;133.38;67.45;;;;;;;10.28;76.04;101633.16;4917762;28;20101;-79
2023/12/30 03:32:28;;;;;;;137.68;69.40;;;;;;;9.59;75.44;101514.19;4911687;28;20138;-79
2023/12/30 03:34:54;;;;;;;126.68;70.45;;;;;;;10.30;75.71;101625.09;4920250;28;20090;-78
2023/12/30 03:37:26;;;;;;;137.07;71.50;;;;;;;10.23;75.36;101620.16;4922723;28;20046;-81
2023/12/30 03:39:56;;;;;;;133.45;70.35;;;;;;;10.19;75.66;101607.22;4931647;28;20051;-80
2023/12/30 03:42:27;;;;;;;129.05;69.18;;;;;;;10.20;75.67;101615.09;4925996;28;20063;-81
2023/12/30 03:44:53;;;;;;;136.93;67.10;;;;;;;9.91;75.91;101582.66;4938054;28;20053;-80
2023/12/30 03:47:20;;;;;;;126.45;67.72;;;;;;;10.24;75.66;101621.00;4923487;28;20050;-80
2023/12/30 03:49:47;;;;;;;129.55;65.40;;;;;;;9.91;75.86;101572.06;4914875;28;20055;-79
2023/12/30 03:52:19;;;;;;;136.43;70.15;;;;;;;10.25;75.85;101622.72;4907505;28;20121;-81
2023/12/30 03:54:46;;;;;;;130.38;67.90;;;;;;;10.21;76.09;101610.63;4940504;28;20054;-80
2023/12/30 03:57:13;;;;;;;131.40;68.18;;;;;;;10.18;76.14;101609.03;4943009;28;20061;-79
2023/12/30 03:59:44;;;;;;;131.48;71.55;;;;;;;9.67;75.42;101536.66;4929909;28;20194;-82
2023/12/30 04:02:12;;;;;;;140.93;72.15;;;;;;;9.95;76.20;101577.97;4936806;28;20054;-79
2023/12/30 04:04:41;;;;;;;131.40;67.18;;;;;;;10.23;75.65;101614.03;4927442;28;20051;-79
2023/12/30 04:07:08;;;;;;;133.18;70.28;;;;;;;9.96;75.81;101577.03;4926034;28;20082;-79
2023/12/30 04:09:38;;;;;;;130.57;70.82;;;;;;;10.21;76.44;101615.94;4917875;28;20051;-80
2023/12/30 04:12:05;;;;;;;139.50;68.63;;;;;;;10.23;75.84;101619.34;4893757;29;20568;-80
2023/12/30 04:14:32;;;;;;;131.95;68.25;;;;;;;10.16;76.32;101600.34;4905263;28;20058;-78
2023/12/30 04:16:58;;;;;;;128.40;68.03;;;;;;;10.21;76.25;101613.28;4926219;28;20607;-79
2023/12/30 04:19:25;;;;;;;133.13;70.63;;;;;;;10.23;76.07;101624.63;4926547;28;20051;-79
2023/12/30 04:21:52;;;;;;;133.73;75.45;;;;;;;10.25;75.88;101631.53;4929138;28;20062;-81
2023/12/30 04:24:19;;;;;;;143.93;68.47;;;;;;;10.30;76.17;101631.25;4917537;28;20113;-79
2023/12/30 04:26:46;;;;;;;134.57;68.80;;;;;;;10.25;76.08;101614.75;4912998;28;20349;-81
2023/12/30 04:29:12;;;;;;;133.95;71.05;;;;;;;10.27;76.13;101626.13;4913064;28;20055;-79
2023/12/30 04:31:39;;;;;;;131.85;72.55;;;;;;;10.09;76.30;101591.13;4914742;28;20547;-82
2023/12/30 04:34:06;;;;;;;139.65;72.25;;;;;;;10.06;76.36;101596.66;4911140;28;20055;-80
2023/12/30 04:36:33;;;;;;;138.85;71.57;;;;;;;10.13;76.28;101602.38;4909460;28;20497;-79
2023/12/30 04:38:59;;;;;;;141.73;71.43;;;;;;;10.25;77.10;101622.72;4912551;28;20047;-79
2023/12/30 04:41:26;;;;;;;138.70;71.15;;;;;;;9.48;76.35;101500.81;4913385;29;20043;-79
2023/12/30 04:43:54;;;;;;;146.52;73.35;;;;;;;9.83;76.66;101559.34;4911440;29;20502;-80
2023/12/30 04:46:21;;;;;;;141.80;71.85;;;;;;;10.28;76.48;101627.84;4919470;29;20047;-80
2023/12/30 04:48:52;;;;;;;129.90;72.05;;;;;;;10.23;76.26;101614.03;4903946;29;20467;-78
2023/12/30 04:51:19;;;;;;;137.80;71.93;;;;;;;10.09;76.84;101612.34;4899820;29;20058;-79
2023/12/30 04:53:48;;;;;;;138.70;71.95;;;;;;;10.11;77.20;101601.63;4909137;28;20047;-80
2023/12/30 04:56:15;;;;;;;135.68;71.10;;;;;;;10.06;77.07;101601.97;4932303;28;20062;-78
2023/12/30 04:58:43;;;;;;;136.95;72.60;;;;;;;10.26;77.15;101637.69;4925489;28;20453;-80
2023/12/30 05:01:11;;;;;;;148.38;75.15;;;;;;;10.13;77.17;101613.00;4931943;28;20157;-79
2023/12/30 05:03:41;;;;;;;140.68;73.35;;;;;;;10.30;77.16;101651.63;4930228;28;20054;-79
2023/12/30 05:06:18;;;;;;;140.77;72.40;;;;;;;10.16;77.47;101639.28;4930257;28;20043;-79
2023/12/30 05:08:45;;;;;;;140.60;72.90;;;;;;;10.19;77.46;101636.41;4909823;28;20379;-79
2023/12/30 05:11:12;;;;;;;143.07;72.95;;;;;;;10.09;77.68;101622.13;4895301;29;20067;-81
2023/12/30 05:13:39;;;;;;;144.38;73.05;;;;;;;9.88;77.80;101588.19;4906320;29;20047;-81
2023/12/30 05:16:06;;;;;;;135.88;70.15;;;;;;;10.19;77.92;101647.03;4911955;28;20075;-81
2023/12/30 05:18:37;;;;;;;134.20;71.10;;;;;;;9.94;77.80;101598.34;4918030;28;20063;-81
2023/12/30 05:21:04;;;;;;;143.35;73.05;;;;;;;10.08;78.33;101631.03;4916698;28;20078;-80
2023/12/30 05:23:43;;;;;;;133.32;71.68;;;;;;;10.00;78.18;101624.47;4889979;28;20372;-80
2023/12/30 05:26:14;;;;;;;143.45;71.97;;;;;;;10.20;78.67;101657.56;4876354;28;20143;-81
2023/12/30 05:28:41;;;;;;;136.48;71.57;;;;;;;10.12;78.32;101646.63;4931580;28;20086;-81
2023/12/30 05:31:09;;;;;;;131.93;71.75;;;;;;;10.21;78.87;101663.69;4922236;28;20051;-79
2023/12/30 05:33:36;;;;;;;134.73;72.50;;;;;;;10.09;78.73;101646.84;4920435;28;20417;-79
2023/12/30 05:36:08;;;;;;;130.00;69.85;;;;;;;9.99;78.63;101632.53;4880030;28;20058;-81
2023/12/30 05:38:45;;;;;;;130.05;72.97;;;;;;;9.88;79.47;101624.44;4886058;28;20059;-80
2023/12/30 05:41:22;;;;;;;127.22;71.35;;;;;;;10.05;78.94;101653.34;4832975;29;20083;-83
2023/12/30 05:43:51;;;;;;;129.82;67.38;;;;;;;10.15;78.96;101680.06;4902105;29;20055;-80
2023/12/30 05:46:20;;;;;;;137.07;72.97;;;;;;;10.12;79.26;101677.59;4900417;29;20047;-81
2023/12/30 05:48:49;;;;;;;124.88;68.07;;;;;;;9.92;79.39;101648.00;4915397;29;20503;-80
2023/12/30 05:51:16;;;;;;;127.15;67.88;;;;;;;10.13;79.27;101682.81;4921451;29;20086;-80
2023/12/30 05:53:50;;;;;;;126.70;68.25;;;;;;;10.14;78.70;101683.66;4937530;28;20129;-81
2023/12/30 05:56:21;;;;;;;124.40;68.55;;;;;;;10.04;79.15;101681.63;4938898;28;20437;-79
2023/12/30 05:58:54;;;;;;;118.50;65.05;;;;;;;9.26;79.21;101548.31;4899903;28;20064;-79
2023/12/30 06:01:24;;;;;;;126.88;67.45;;;;;;;10.04;79.44;101679.00;4924745;28;20148;-80
2023/12/30 06:03:53;;;;;;;124.32;64.82;;;;;;;10.01;79.50;101688.97;4919572;28;20562;-81
2023/12/30 06:06:20;;;;;;;114.78;65.72;;;;;;;9.99;79.53;101682.94;4918857;28;20059;-80
2023/12/30 06:08:47;;;;;;;118.60;65.03;;;;;;;9.75;79.47;101645.69;4907310;28;20371;-79
2023/12/30 06:11:16;;;;;;;126.88;65.88;;;;;;;9.39;79.64;101596.88;4910362;29;20579;-80
2023/12/30 06:13:43;;;;;;;118.72;66.78;;;;;;;9.96;79.62;101689.28;4902568;29;20084;-80
2023/12/30 06:16:10;;;;;;;121.75;65.95;;;;;;;9.86;78.84;101677.63;4910274;28;20851;-79
2023/12/30 06:18:37;;;;;;;125.53;64.72;;;;;;;10.06;78.90;101713.38;4926261;28;20047;-78
2023/12/30 06:21:09;;;;;;;113.85;61.80;;;;;;;10.08;78.40;101708.81;4901571;28;20039;-80
2023/12/30 06:23:43;;;;;;;110.40;64.38;;;;;;;9.99;78.44;101699.69;4859496;29;20363;-80
2023/12/30 06:26:16;;;;;;;114.70;65.03;;;;;;;9.89;78.40;101684.53;4851958;29;20291;-82
2023/12/30 06:28:46;;;;;;;111.63;64.72;;;;;;;9.98;78.42;101716.56;4868112;29;20442;-82
2023/12/30 06:31:17;;;;;;;115.10;64.90;;;;;;;9.58;78.51;101654.78;4899705;29;20051;-82
2023/12/30 06:33:44;;;;;;;119.18;61.85;;;;;;;10.05;78.33;101731.13;4914842;28;20058;-82
2023/12/30 06:36:23;;;;;;;117.78;60.95;;;;;;;9.98;78.79;101726.34;4920321;28;20129;-83
2023/12/30 06:39:00;;;;;;;110.95;62.08;;;;;;;9.50;79.06;101655.31;4919761;28;20054;-81
2023/12/30 06:41:27;;;;;;;111.13;62.58;;;;;;;9.78;79.49;101709.09;4943632;28;20121;-83
2023/12/30 06:43:54;;;;;;;106.28;62.83;;;;;;;9.78;78.84;101715.28;4928034;28;20051;-81
2023/12/30 06:46:21;;;;;;;115.57;63.97;;;;;;;9.46;79.15;101667.06;4920243;28;20721;-82
2023/12/30 06:48:51;;;;;;;106.30;62.53;;;;;;;9.76;80.24;101719.00;4899001;29;20562;-83
2023/12/30 06:51:18;;;;;;;104.65;59.03;;;;;;;9.86;80.16;101745.75;4918615;28;20046;-81
2023/12/30 06:53:45;;;;;;;108.63;63.47;;;;;;;9.66;80.22;101709.94;4944622;28;20161;-82
2023/12/30 06:56:12;;;;;;;106.25;62.97;;;;;;;9.71;80.15;101721.09;4938447;28;20130;-80
2023/12/30 06:58:45;;;;;;;113.75;64.22;;;;;;;9.67;80.38;101715.16;4927191;28;20399;-83
2023/12/30 07:01:13;;;;;;;116.57;63.22;;;;;;;9.74;80.72;101735.00;4909189;28;20414;-81
2023/12/30 07:03:43;;;;;;;118.07;64.97;;;;;;;9.77;81.21;101749.84;4882550;29;20490;-80
2023/12/30 07:06:10;;;;;;;111.30;65.22;;;;;;;9.70;80.91;101737.97;4938317;28;20468;-81
2023/12/30 07:08:37;;;;;;;112.13;63.20;;;;;;;9.88;81.10;101762.38;4931486;28;20047;-81
2023/12/30 07:11:03;;;;;;;116.38;61.90;;;;;;;9.52;81.33;101713.53;4930201;28;20054;-82
2023/12/30 07:13:35;;;;;;;114.90;65.05;;;;;;;9.72;81.36;101741.34;4923611;28;20076;-83
2023/12/30 07:16:01;;;;;;;120.40;62.72;;;;;;;9.78;81.56;101759.50;4929881;28;20055;-81
2023/12/30 07:18:31;;;;;;;104.65;65.40;;;;;;;9.80;81.26;101752.28;4903465;29;20051;-82
2023/12/30 07:20:58;;;;;;;117.93;64.43;;;;;;;9.88;nan;101770.34;4908238;29;20301;-84
2023/12/30 07:23:27;;;;;;;110.45;63.67;;;;;;;9.86;81.30;101764.31;4913147;29;20059;-81
2023/12/30 07:26:07;;;;;;;110.60;61.72;;;;;;;9.51;81.33;101719.78;4880306;28;20524;-83
2023/12/30 07:28:33;;;;;;;112.57;66.25;;;;;;;9.78;81.54;101756.84;4898561;29;20081;-83
2023/12/30 07:31:00;;;;;;;115.32;63.00;;;;;;;9.59;81.83;101734.22;4909569;29;20498;-82
2023/12/30 07:33:27;;;;;;;110.43;63.45;;;;;;;9.91;81.74;101773.66;4910937;29;20078;-81
2023/12/30 07:35:55;;;;;;;107.05;61.45;;;;;;;9.92;81.18;101771.84;4910528;29;20063;-80
2023/12/30 07:38:22;;;;;;;108.15;61.75;;;;;;;9.77;81.31;101760.47;4909586;29;20585;-80
2023/12/30 07:40:49;;;;;;;110.60;57.83;;;;;;;9.83;81.54;101774.16;4910760;28;20202;-81
2023/12/30 07:43:16;;;;;;;110.78;63.20;;;;;;;9.91;81.55;101786.91;4905696;29;20047;-83
2023/12/30 07:45:47;;;;;;;109.30;60.47;;;;;;;9.95;80.87;101788.41;4911862;28;20047;-80
2023/12/30 07:48:14;;;;;;;100.22;59.70;;;;;;;9.76;80.99;101750.81;4895501;29;20510;-80
2023/12/30 07:50:41;;;;;;;107.50;64.80;;;;;;;9.85;80.91;101758.13;4906643;29;20477;-81
2023/12/30 07:53:08;;;;;;;102.82;60.45;;;;;;;9.99;81.18;101776.63;4918708;29;20058;-82
2023/12/30 07:55:35;;;;;;;99.78;59.28;;;;;;;9.98;81.10;101779.41;4894960;29;20067;-80
2023/12/30 07:58:02;;;;;;;112.70;63.85;;;;;;;10.02;80.82;101787.03;4897604;29;20043;-82
2023/12/30 08:00:29;;;;;;;102.88;62.22;;;;;;;9.91;81.04;101768.34;4903462;29;20314;-81
2023/12/30 08:02:55;;;;;;;112.28;63.63;;;;;;;9.80;81.47;101747.81;4913406;28;20558;-81
2023/12/30 08:05:27;;;;;;;101.85;61.42;;;;;;;9.92;80.63;101769.19;4932738;28;20353;-82
2023/12/30 08:07:53;;;;;;;108.43;60.28;;;;;;;9.89;81.35;101770.25;4907776;28;20065;-81
2023/12/30 08:10:24;;;;;;;106.88;63.00;;;;;;;9.99;81.27;101775.78;4910967;28;20050;-82
2023/12/30 08:12:51;;;;;;;104.18;61.40;;;;;;;10.14;81.03;101806.56;4951069;28;20050;-81
2023/12/30 08:15:17;;;;;;;99.03;60.20;;;;;;;10.19;80.38;101804.44;4950661;28;20050;-80
2023/12/30 08:17:44;;;;;;;98.53;61.17;;;;;;;9.96;80.22;101765.38;4943178;28;20054;-80
2023/12/30 08:20:11;;;;;;;104.35;61.20;;;;;;;10.19;80.02;101798.28;4942841;28;20143;-82
2023/12/30 08:22:39;;;;;;;95.63;57.58;;;;;;;10.23;79.89;101799.78;4947082;28;20057;-82
2023/12/30 08:25:07;;;;;;;101.53;63.10;;;;;;;10.24;79.63;101801.47;4955928;28;20141;-81
2023/12/30 08:27:35;;;;;;;99.78;58.67;;;;;;;10.17;79.91;101774.53;4952003;28;20084;-82
2023/12/30 08:30:05;;;;;;;102.72;59.72;;;;;;;10.24;79.74;101786.44;4942339;28;20524;-81
2023/12/30 08:32:37;;;;;;;102.47;60.17;;;;;;;10.20;79.91;101778.78;4930127;28;20055;-81
2023/12/30 08:35:07;;;;;;;101.72;60.70;;;;;;;10.32;79.82;101799.19;4912320;28;20054;-81
2023/12/30 08:37:35;;;;;;;101.28;58.45;;;;;;;10.34;79.27;101799.06;4915773;28;20077;-82
2023/12/30 08:40:08;;;;;;;86.55;55.95;;;;;;;10.25;79.18;101781.97;4933987;28;20054;-81
2023/12/30 08:42:39;;;;;;;96.88;57.80;;;;;;;10.22;79.44;101776.88;4923562;28;20055;-80
2023/12/30 08:45:10;;;;;;;98.70;61.17;;;;;;;10.27;79.23;101785.38;4918391;28;20466;-82
2023/12/30 08:47:38;;;;;;;102.13;59.00;;;;;;;10.44;78.96;101808.97;4906539;28;20405;-81
2023/12/30 08:50:06;;;;;;;92.32;57.25;;;;;;;10.38;78.82;101801.41;4895948;28;20223;-81
2023/12/30 08:52:33;;;;;;;98.38;57.40;;;;;;;10.41;78.68;101803.88;4918379;28;20050;-80
2023/12/30 08:55:00;;;;;;;96.25;57.28;;;;;;;10.43;78.90;101804.59;4917053;28;20157;-81
2023/12/30 08:57:27;;;;;;;96.53;59.80;;;;;;;10.25;79.27;101781.97;4907831;28;20161;-81
2023/12/30 08:59:54;;;;;;;95.13;58.38;;;;;;;10.45;79.28;101815.13;4913553;28;20396;-81
2023/12/30 09:02:22;;;;;;;96.68;58.70;;;;;;;10.45;79.41;101808.00;4886513;28;20250;-80
2023/12/30 09:04:49;;;;;;;99.30;57.58;;;;;;;10.50;79.47;101814.81;4891908;28;20039;-82
2023/12/30 09:07:17;;;;;;;89.38;57.05;;;;;;;10.38;78.64;101792.59;4913511;28;20043;-81
2023/12/30 09:09:44;;;;;;;98.80;59.08;;;;;;;10.59;78.77;101814.16;4937054;28;20093;-83
2023/12/30 09:12:10;;;;;;;101.65;59.28;;;;;;;10.70;78.86;101835.50;4917410;28;20070;-80
2023/12/30 09:14:37;;;;;;;95.20;57.53;;;;;;;10.66;78.74;101829.56;4924445;28;20381;-82
2023/12/30 09:17:04;;;;;;;96.70;57.33;;;;;;;10.76;79.28;101845.72;4925034;28;20064;-80
2023/12/30 09:19:35;;;;;;;96.35;58.75;;;;;;;10.27;78.69;101769.44;4888862;28;20097;-80
2023/12/30 09:22:03;;;;;;;107.60;56.95;;;;;;;10.51;79.06;101800.56;4926228;28;20066;-80
2023/12/30 09:24:29;;;;;;;97.85;58.90;;;;;;;10.84;78.62;101851.31;4914998;28;20051;-80
2023/12/30 09:26:56;;;;;;;101.40;61.15;;;;;;;10.75;78.82;101849.31;4920991;28;20046;-81
2023/12/30 09:29:23;;;;;;;101.57;60.08;;;;;;;10.77;79.34;101847.41;4916444;28;20602;-82
2023/12/30 09:31:50;;;;;;;95.15;56.47;;;;;;;10.57;80.01;101813.44;4914872;29;20062;-80
2023/12/30 09:34:17;;;;;;;106.60;61.58;;;;;;;10.79;80.04;101840.19;4929355;28;20187;-80
2023/12/30 09:37:04;;;;;;;106.65;62.05;;;;;;;10.91;79.58;101847.28;4925191;28;20062;-81
2023/12/30 09:39:31;;;;;;;109.15;62.47;;;;;;;10.56;79.55;101801.09;4919695;28;20917;-82
2023/12/30 09:41:58;;;;;;;100.05;61.90;;;;;;;10.83;80.54;101841.66;4922697;28;20130;-82
2023/12/30 09:44:26;;;;;;;105.40;62.75;;;;;;;10.81;80.81;101832.94;4916820;28;20058;-79
2023/12/30 09:46:54;;;;;;;105.25;62.17;;;;;;;10.98;81.01;101841.53;4925534;28;20421;-81
2023/12/30 09:49:21;;;;;;;109.30;61.88;;;;;;;10.94;80.44;101838.25;4933087;28;20055;-82
2023/12/30 09:51:48;;;;;;;103.00;61.38;;;;;;;10.81;80.74;101814.34;4896284;28;20129;-81
2023/12/30 09:54:15;;;;;;;100.72;61.67;;;;;;;10.94;80.71;101835.59;4914256;28;20475;-80
2023/12/30 09:56:46;;;;;;;107.90;62.78;;;;;;;10.96;81.49;101824.84;4936456;28;20226;-81
2023/12/30 09:59:16;;;;;;;103.38;60.42;;;;;;;11.09;81.48;101836.28;4925665;28;20107;-80
2023/12/30 10:01:47;;;;;;;95.38;59.45;;;;;;;11.13;80.47;101835.13;4889022;28;20053;-83
2023/12/30 10:04:14;;;;;;;98.47;56.78;;;;;;;10.84;80.35;101779.59;4906797;28;20191;-81
2023/12/30 10:06:43;;;;;;;97.68;57.13;;;;;;;11.09;80.15;101825.66;4920622;28;20365;-82
2023/12/30 10:09:12;;;;;;;96.97;55.55;;;;;;;11.19;80.05;101832.03;4911976;28;20894;-81
2023/12/30 10:11:38;;;;;;;88.20;49.25;;;;;;;11.22;79.96;101830.97;4930403;28;20601;-80
2023/12/30 10:14:05;;;;;;;86.20;48.33;;;;;;;11.19;79.37;101821.41;4919742;28;20059;-82
2023/12/30 10:16:32;;;;;;;93.47;54.78;;;;;;;11.13;78.94;101801.41;4944747;28;20164;-81
2023/12/30 10:18:59;;;;;;;99.13;59.00;;;;;;;11.22;79.90;101815.88;4938428;28;20749;-81
2023/12/30 10:21:29;;;;;;;95.10;56.22;;;;;;;11.00;79.87;101783.84;4940428;28;20482;-82
2023/12/30 10:23:58;;;;;;;95.63;57.40;;;;;;;11.07;80.10;101803.69;4939709;28;20482;-82
2023/12/30 10:26:24;;;;;;;83.05;48.88;;;;;;;11.27;79.70;101823.50;4937614;28;20047;-82
2023/12/30 10:28:52;;;;;;;77.53;49.47;;;;;;;11.13;78.86;101800.56;4939835;28;20050;-81
2023/12/30 10:31:22;;;;;;;75.47;49.08;;;;;;;11.32;78.89;101816.88;4917281;28;20047;-81
2023/12/30 10:33:51;;;;;;;83.07;48.67;;;;;;;11.15;79.17;101772.09;4920602;28;20134;-79
2023/12/30 10:36:19;;;;;;;83.75;48.38;;;;;;;11.40;79.03;101807.50;4924293;28;20333;-81
2023/12/30 10:38:49;;;;;;;82.13;50.47;;;;;;;11.01;79.10;101729.72;4939524;28;20062;-81
2023/12/30 10:41:15;;;;;;;99.72;57.58;;;;;;;11.47;79.06;101803.44;4914476;28;20451;-81
2023/12/30 10:43:42;;;;;;;99.15;58.38;;;;;;;11.46;79.03;101799.94;4924777;28;20051;-79
2023/12/30 10:46:12;;;;;;;106.45;61.33;;;;;;;11.23;79.32;101753.75;4894767;28;20820;-81
2023/12/30 10:49:03;;;;;;;101.28;60.88;;;;;;;11.13;80.06;101729.66;4905346;28;20496;-81
2023/12/30 10:51:34;;;;;;;102.55;63.60;;;;;;;11.29;79.87;101744.50;4899356;28;20050;-81
2023/12/30 10:54:06;;;;;;;107.38;59.70;;;;;;;11.41;79.71;101770.19;4918532;28;20042;-79
2023/12/30 10:56:47;;;;;;;99.38;56.88;;;;;;;11.61;79.56;101795.28;4888533;28;20431;-78
2023/12/30 10:59:18;;;;;;;104.45;58.80;;;;;;;11.45;79.43;101781.44;4923139;28;20114;-82
2023/12/30 11:01:53;;;;;;;103.60;60.83;;;;;;;11.49;79.92;101790.88;4915151;28;20059;-80
2023/12/30 11:04:29;;;;;;;98.57;57.17;;;;;;;11.51;79.63;101794.28;4903628;28;20170;-81
2023/12/30 11:06:59;;;;;;;104.32;61.53;;;;;;;11.48;79.91;101775.88;4906744;28;20043;-82
2023/12/30 11:09:29;;;;;;;97.80;59.28;;;;;;;11.45;80.16;101765.47;4923714;28;20062;-80
2023/12/30 11:12:05;;;;;;;100.88;58.67;;;;;;;11.64;80.06;101781.75;4898498;28;20069;-80